Pickwick

Latest Operating Information

Please note! Water release schedules often change without notice due to unanticipated changes in weather conditions and power system requirements.

Use caution near dams. A large amount of water may be discharged without warning at any time. Your safety depends on obeying all posted safety regulations and warnings. Learn more.

Generation Releases

Caption
Day Time Period Generators
5/22/2018 midnight - 11am 3
5/22/2018 11am - 8pm 4 or more
5/22/2018 8pm - midnight 3

Observed Data

Caption
Day Time (Eastern) Reservoir Elevation (behind dam)* Tailwater Elevation (below dam)* Average Hourly Discharge*
5/20/2018 2 AM 413.93 362.33 30,785
5/20/2018 3 AM 413.92 361.94 30,964
5/20/2018 4 AM 413.81 361.71 30,713
5/20/2018 5 AM 413.85 361.56 30,628
5/20/2018 6 AM 413.88 361.43 30,409
5/20/2018 7 AM 413.81 361.40 30,369
5/20/2018 8 AM 413.74 361.26 30,475
5/20/2018 9 AM 413.72 361.20 30,712
5/20/2018 10 AM 413.69 361.20 30,714
5/20/2018 11 AM 413.69 361.21 31,556
5/20/2018 noon 413.64 361.97 48,554
5/20/2018 1 PM 413.69 362.48 49,110
5/20/2018 2 PM 413.79 362.66 48,952
5/20/2018 3 PM 413.79 362.74 48,845
5/20/2018 4 PM 413.77 362.90 48,919
5/20/2018 5 PM 413.79 362.89 49,038
5/20/2018 6 PM 413.75 363.00 49,241
5/20/2018 7 PM 413.77 363.00 49,525
5/20/2018 8 PM 413.82 363.06 49,505
5/20/2018 9 PM 413.90 363.05 49,133
5/20/2018 10 PM 413.94 362.35 30,790
5/20/2018 11 PM 413.87 361.78 30,054
5/20/2018 midnight 413.78 361.54 29,757
5/21/2018 1 AM 413.73 361.36 29,663
5/21/2018 2 AM 413.78 361.24 29,786
5/21/2018 3 AM 413.70 361.19 30,699
5/21/2018 4 AM 413.69 361.98 48,530
5/21/2018 5 AM 413.60 362.53 50,113
5/21/2018 6 AM 413.53 363.23 61,961
5/21/2018 7 AM 413.44 363.77 62,813
5/21/2018 8 AM 413.42 364.05 63,414
5/21/2018 9 AM 413.38 364.24 63,930
5/21/2018 10 AM 413.37 364.36 64,157
5/21/2018 11 AM 413.35 364.42 63,972
5/21/2018 noon 413.37 364.56 64,299
5/21/2018 1 PM 413.39 364.59 64,392
5/21/2018 2 PM 413.45 364.67 64,750
5/21/2018 3 PM 413.51 364.72 64,696
5/21/2018 4 PM 413.53 364.77 64,671
5/21/2018 5 PM 413.56 364.88 64,544
5/21/2018 6 PM 413.56 364.86 64,521
5/21/2018 7 PM 413.58 364.86 64,511
5/21/2018 8 PM 413.62 364.86 64,506
5/21/2018 9 PM 413.67 364.92 64,429
5/21/2018 10 PM 413.73 364.35 48,938
5/21/2018 11 PM 413.73 363.96 48,798
5/21/2018 midnight 413.80 363.20 31,398
5/22/2018 1 AM 413.75 362.50 30,554

Predicted Data

Caption
Day Average Inflow* Midnight Elevation* Average Outflow*
5/22/2018 43,318 413.83 41,693
5/23/2018 41,603 413.76 43,020
5/24/2018 42,300 413.73 43,020

*Elevations are in feet above sea level. Discharges are in cubic feet per second and are reported at the end of the hour.

Notes:

Water release schedules are updated periodically throughout the day. Next-day release schedules are usually available by 6 p.m. of the current day.

Observed water levels also are updated periodically throughout the day. Predicted water levels are updated at least once a day, by 1 p.m. Eastern time, and may be updated more frequently when conditions warrant.

Reservoir Information

Get the most up-to-date information for each of the reservoirs TVA manages, including today’s observed lake levels, predicted elevations, planned releases, reservoir operating guides, ecological health ratings, fish-population survey results, recreation facilities and more.

 

 

Lake Info App

Want your lake info to go? Download the TVA Lake Info app, an easy-to-use resource for operating on and around reservoirs and dams in the TVA region. Available for iPhone and Android devices.